Time;durP1;ratioP1;P1;durP2;ratioP2;P2;SDS_P1;SDS_P2;PMS_P1;PMS_P2;Temp;Humidity;BMP_temperature;BMP_pressure;BME280_temperature;BME280_humidity;BME280_pressure;Samples;Min_cycle;Max_cycle;Signal;HPM_P1;HPM_P2
2021/10/28 00:13:39;;;;;;;1.70;1.20;;;21.40;49.30;;;;;;5050475;28;20037;-41
2021/10/28 00:16:15;;;;;;;0.85;0.75;;;21.40;49.30;;;;;;5050546;28;20343;-43
2021/10/28 00:18:44;;;;;;;2.63;0.98;;;21.40;49.30;;;;;;5048377;28;20072;-42
2021/10/28 00:21:12;;;;;;;0.93;0.70;;;21.40;49.30;;;;;;5048608;28;20386;-42
2021/10/28 00:23:44;;;;;;;2.35;0.80;;;21.40;49.30;;;;;;5050024;28;20049;-41
2021/10/28 00:26:12;;;;;;;1.02;0.93;;;21.40;49.30;;;;;;5050589;28;20045;-41
2021/10/28 00:28:40;;;;;;;1.17;0.65;;;21.40;49.30;;;;;;5050233;28;20037;-41
2021/10/28 00:31:10;;;;;;;3.15;1.52;;;21.40;49.30;;;;;;5061887;28;20409;-41
2021/10/28 00:33:38;;;;;;;1.83;0.98;;;21.40;49.30;;;;;;5047919;28;20420;-41
2021/10/28 00:36:07;;;;;;;0.93;0.93;;;21.40;49.30;;;;;;5049054;28;20037;-41
2021/10/28 00:38:34;;;;;;;2.05;1.58;;;21.40;49.30;;;;;;5049832;28;20055;-41
2021/10/28 00:41:03;;;;;;;1.40;0.60;;;21.40;49.30;;;;;;5049541;28;20041;-41
2021/10/28 00:43:31;;;;;;;4.05;1.15;;;21.40;49.30;;;;;;5055361;28;20234;-43
2021/10/28 00:46:00;;;;;;;2.20;1.15;;;21.40;49.30;;;;;;5050174;28;20455;-43
2021/10/28 00:48:31;;;;;;;1.40;0.57;;;21.40;49.30;;;;;;5047427;28;20071;-42
2021/10/28 00:50:58;;;;;;;0.95;0.45;;;21.40;49.30;;;;;;5047243;28;20037;-40
2021/10/28 00:53:25;;;;;;;1.15;0.65;;;21.40;49.30;;;;;;5045383;28;20141;-40
2021/10/28 00:55:54;;;;;;;2.92;1.08;;;21.40;49.30;;;;;;5049512;28;20045;-40
2021/10/28 00:58:24;;;;;;;1.00;1.00;;;21.40;49.30;;;;;;5049651;28;20040;-41
2021/10/28 01:00:51;;;;;;;2.25;1.00;;;21.40;49.30;;;;;;5061499;28;20044;-39
2021/10/28 01:03:19;;;;;;;1.65;0.85;;;21.40;49.30;;;;;;5066485;28;20137;-42
2021/10/28 01:05:48;;;;;;;1.50;0.90;;;21.40;49.30;;;;;;5054413;28;20048;-40
2021/10/28 01:08:17;;;;;;;0.63;0.60;;;21.30;49.50;;;;;;5052802;28;20100;-40
2021/10/28 01:10:46;;;;;;;0.40;0.40;;;21.30;49.30;;;;;;5052795;28;20053;-40
2021/10/28 01:13:14;;;;;;;0.63;0.63;;;21.30;49.30;;;;;;5053262;28;20090;-41
2021/10/28 01:15:41;;;;;;;1.48;0.82;;;21.30;49.30;;;;;;5052077;28;20729;-42
2021/10/28 01:18:10;;;;;;;1.13;0.88;;;21.30;49.30;;;;;;5051788;28;20052;-39
2021/10/28 01:20:40;;;;;;;0.50;0.50;;;21.30;49.30;;;;;;5052923;28;20131;-41
2021/10/28 01:23:07;;;;;;;1.02;0.70;;;21.30;49.30;;;;;;5052446;28;20049;-39
2021/10/28 01:25:35;;;;;;;1.70;0.93;;;21.30;49.30;;;;;;5052601;28;20049;-42
2021/10/28 01:28:02;;;;;;;1.38;1.05;;;21.30;49.30;;;;;;5052906;28;20044;-43
2021/10/28 01:30:29;;;;;;;1.70;0.77;;;21.30;49.30;;;;;;5061917;28;20036;-43
2021/10/28 01:32:56;;;;;;;1.13;0.70;;;21.30;49.40;;;;;;5052687;28;20060;-41
2021/10/28 01:35:23;;;;;;;0.82;0.63;;;21.30;49.40;;;;;;5052642;28;20041;-46
2021/10/28 01:37:52;;;;;;;0.50;0.50;;;21.30;49.40;;;;;;5052224;28;20399;-41
2021/10/28 01:40:20;;;;;;;1.38;0.57;;;21.30;49.40;;;;;;5052925;28;20355;-41
2021/10/28 01:42:48;;;;;;;0.63;0.60;;;21.30;49.40;;;;;;5049140;28;25892;-41
2021/10/28 01:45:15;;;;;;;0.82;0.38;;;21.30;49.40;;;;;;5054687;28;20033;-41
2021/10/28 01:47:42;;;;;;;1.10;0.73;;;21.20;49.30;;;;;;5058418;28;20127;-42
2021/10/28 01:50:10;;;;;;;0.60;0.60;;;21.30;49.40;;;;;;5057423;28;20040;-42
2021/10/28 01:52:39;;;;;;;0.57;0.55;;;21.20;49.30;;;;;;5051897;28;20040;-43
2021/10/28 01:55:10;;;;;;;4.70;1.35;;;21.20;49.40;;;;;;5052432;28;20032;-43
2021/10/28 01:57:39;;;;;;;2.92;0.77;;;21.20;49.40;;;;;;5048531;28;20045;-44
2021/10/28 02:00:12;;;;;;;1.95;0.50;;;21.20;49.40;;;;;;5063593;28;20501;-42
2021/10/28 02:02:41;;;;;;;0.60;0.57;;;21.20;49.40;;;;;;5051726;28;20041;-41
2021/10/28 02:05:09;;;;;;;0.40;0.22;;;21.20;49.40;;;;;;5052140;28;20040;-41
2021/10/28 02:07:37;;;;;;;2.15;0.30;;;21.20;49.40;;;;;;5052643;28;20037;-41
2021/10/28 02:10:05;;;;;;;1.20;0.47;;;21.20;49.40;;;;;;5050276;28;20041;-41
2021/10/28 02:12:33;;;;;;;1.33;0.60;;;21.20;49.40;;;;;;5050310;28;20083;-41
2021/10/28 02:15:00;;;;;;;1.50;0.75;;;21.20;49.40;;;;;;5051733;28;20037;-41
2021/10/28 02:17:27;;;;;;;0.95;0.43;;;21.20;49.40;;;;;;5052219;28;20412;-42
2021/10/28 02:19:54;;;;;;;0.85;0.85;;;21.20;49.40;;;;;;5051908;28;20037;-42
2021/10/28 02:22:21;;;;;;;0.90;0.45;;;21.20;49.40;;;;;;5062676;28;20029;-44
2021/10/28 02:24:48;;;;;;;0.98;0.60;;;21.20;49.40;;;;;;5050108;28;20047;-42
2021/10/28 02:27:16;;;;;;;1.40;0.80;;;21.20;49.40;;;;;;5064956;28;20037;-41
2021/10/28 02:29:45;;;;;;;1.63;0.50;;;21.20;50.00;;;;;;5058745;28;20076;-42
2021/10/28 02:32:12;;;;;;;0.50;0.50;;;21.10;50.00;;;;;;5056375;28;20041;-41
2021/10/28 02:34:40;;;;;;;1.45;0.60;;;21.10;49.40;;;;;;5051121;28;20040;-41
2021/10/28 02:37:07;;;;;;;2.17;0.88;;;21.20;49.50;;;;;;5056027;28;20040;-46
2021/10/28 02:39:35;;;;;;;1.75;0.30;;;21.10;49.40;;;;;;5057974;28;20118;-41
2021/10/28 02:42:02;;;;;;;1.05;0.65;;;21.10;49.40;;;;;;5048821;28;20041;-41
2021/10/28 02:44:30;;;;;;;0.80;0.80;;;21.10;49.40;;;;;;5052522;28;20040;-42
2021/10/28 02:46:58;;;;;;;1.38;0.65;;;21.10;49.50;;;;;;5058128;28;20047;-43
2021/10/28 02:49:26;;;;;;;2.40;0.40;;;21.10;49.40;;;;;;5050751;28;20033;-43
2021/10/28 02:51:54;;;;;;;2.03;0.68;;;21.10;49.50;;;;;;5051457;28;20119;-41
2021/10/28 02:54:22;;;;;;;3.70;0.60;;;21.10;49.50;;;;;;5048323;28;20119;-42
2021/10/28 02:56:50;;;;;;;0.60;0.50;;;21.10;49.50;;;;;;5052860;28;20120;-45
2021/10/28 02:59:18;;;;;;;0.75;0.60;;;21.10;49.50;;;;;;5053499;28;20052;-44
2021/10/28 03:01:48;;;;;;;0.30;0.30;;;21.10;49.50;;;;;;5059293;28;20037;-43
2021/10/28 03:04:19;;;;;;;1.58;0.80;;;21.10;49.50;;;;;;5050751;28;20114;-42
2021/10/28 03:06:47;;;;;;;0.52;0.40;;;21.00;49.40;;;;;;5050391;28;20043;-41
2021/10/28 03:09:16;;;;;;;0.60;0.35;;;21.10;49.50;;;;;;5048778;28;20500;-41
2021/10/28 03:11:46;;;;;;;1.02;0.55;;;21.00;49.40;;;;;;5050695;28;20533;-41
2021/10/28 03:14:16;;;;;;;1.40;0.57;;;21.10;49.50;;;;;;5050902;28;20127;-45
2021/10/28 03:16:51;;;;;;;2.20;0.50;;;21.00;49.40;;;;;;5049240;28;20056;-46
2021/10/28 03:19:30;;;;;;;0.73;0.57;;;21.00;49.40;;;;;;5050608;28;20040;-41
2021/10/28 03:27:28;;;;;;;0.50;0.30;;;21.00;49.50;;;;;;5063812;28;20040;-42
2021/10/28 03:29:56;;;;;;;1.20;0.30;;;21.00;49.50;;;;;;5060404;28;20442;-43
2021/10/28 03:32:24;;;;;;;0.63;0.40;;;21.00;49.50;;;;;;5053516;28;20398;-43
2021/10/28 03:34:53;;;;;;;0.38;0.32;;;21.00;49.50;;;;;;5050545;28;20040;-42
2021/10/28 03:37:23;;;;;;;0.30;0.30;;;21.00;49.60;;;;;;5050625;28;20116;-41
2021/10/28 03:43:12;;;;;;;1.58;0.50;;;20.90;49.50;;;;;;5080848;28;20390;-42
2021/10/28 03:48:59;;;;;;;0.57;0.43;;;20.90;49.60;;;;;;5073640;28;20124;-42
2021/10/28 04:19:51;;;;;;;0.68;0.68;;;20.80;49.70;;;;;;5012082;28;20046;-41
2021/10/28 04:30:48;;;;;;;0.30;0.30;;;20.70;49.70;;;;;;5016516;28;20418;-41
2021/10/28 04:33:17;;;;;;;0.93;0.38;;;20.70;50.20;;;;;;5007635;28;20052;-41
2021/10/28 04:35:45;;;;;;;0.57;0.57;;;20.80;49.70;;;;;;5074260;28;20090;-40
2021/10/28 04:38:13;;;;;;;2.03;0.20;;;20.80;49.70;;;;;;5074071;28;20032;-42
2021/10/28 04:40:40;;;;;;;0.50;0.28;;;20.70;49.60;;;;;;5069919;28;20136;-40
2021/10/28 04:43:07;;;;;;;1.05;0.43;;;20.70;49.60;;;;;;5076675;28;20037;-45
2021/10/28 04:45:34;;;;;;;0.30;0.30;;;20.70;49.60;;;;;;5078773;28;20052;-40
2021/10/28 04:48:01;;;;;;;0.30;0.30;;;20.70;49.60;;;;;;5066533;28;20044;-41
2021/10/28 04:50:29;;;;;;;0.70;0.30;;;20.70;49.60;;;;;;5071520;28;20040;-43
2021/10/28 04:52:56;;;;;;;0.85;0.57;;;20.80;49.60;;;;;;5066883;28;20036;-45
2021/10/28 04:55:23;;;;;;;0.30;0.30;;;20.70;49.60;;;;;;5060428;28;20041;-40
2021/10/28 04:57:50;;;;;;;1.27;0.30;;;20.70;49.60;;;;;;5033509;28;20064;-42
2021/10/28 05:00:18;;;;;;;0.82;0.75;;;20.70;49.60;;;;;;5061489;28;20079;-40
2021/10/28 05:02:45;;;;;;;0.98;0.28;;;20.70;49.60;;;;;;5060338;28;20044;-40
2021/10/28 05:05:12;;;;;;;1.42;0.35;;;20.70;49.60;;;;;;5060272;28;20036;-41
2021/10/28 05:07:40;;;;;;;0.75;0.30;;;20.70;49.60;;;;;;5060273;28;20036;-40
2021/10/28 05:10:07;;;;;;;2.03;0.30;;;20.70;49.60;;;;;;5062931;28;20041;-41
2021/10/28 05:12:34;;;;;;;0.75;0.75;;;20.70;49.60;;;;;;5065070;28;20048;-41
2021/10/28 05:15:02;;;;;;;0.50;0.20;;;20.70;49.60;;;;;;5052589;28;20041;-42
2021/10/28 05:17:29;;;;;;;0.52;0.20;;;20.70;49.60;;;;;;5057645;28;20448;-41
2021/10/28 05:19:56;;;;;;;0.80;0.40;;;20.70;49.60;;;;;;5059289;28;20204;-45
2021/10/28 05:22:23;;;;;;;1.95;0.30;;;20.70;49.60;;;;;;5048666;28;20045;-40
2021/10/28 05:24:51;;;;;;;0.43;0.35;;;20.70;49.60;;;;;;5033039;28;20409;-40
2021/10/28 05:27:18;;;;;;;2.72;0.52;;;20.70;49.60;;;;;;5061965;28;20430;-41
2021/10/28 05:29:46;;;;;;;1.48;0.30;;;20.70;49.60;;;;;;5059866;28;20048;-41
2021/10/28 05:32:13;;;;;;;3.20;0.70;;;20.70;49.60;;;;;;5059567;28;20234;-40
2021/10/28 05:34:40;;;;;;;1.67;0.43;;;20.60;49.50;;;;;;5059043;28;20049;-41
2021/10/28 05:37:07;;;;;;;1.05;0.70;;;20.60;49.50;;;;;;5051083;28;20508;-41
2021/10/28 05:39:34;;;;;;;0.77;0.40;;;20.60;49.50;;;;;;5064751;28;20041;-41
2021/10/28 05:42:02;;;;;;;0.35;0.25;;;20.70;50.20;;;;;;5062888;28;20072;-41
2021/10/28 05:44:29;;;;;;;0.80;0.30;;;20.60;49.50;;;;;;5053635;28;20043;-43
2021/10/28 05:46:56;;;;;;;0.70;0.40;;;20.60;49.50;;;;;;5052805;28;20259;-41
2021/10/28 05:49:25;;;;;;;0.52;0.52;;;20.60;49.50;;;;;;5059394;28;20043;-42
2021/10/28 05:51:52;;;;;;;0.55;0.30;;;20.60;49.50;;;;;;5032752;28;20044;-43
2021/10/28 05:54:19;;;;;;;1.88;0.38;;;20.60;49.50;;;;;;5065666;28;20045;-41
2021/10/28 05:56:47;;;;;;;0.57;0.38;;;20.60;49.50;;;;;;5059901;28;20087;-43
2021/10/28 05:59:15;;;;;;;0.50;0.35;;;20.60;49.50;;;;;;5054583;28;20041;-41
2021/10/28 06:01:42;;;;;;;2.28;0.68;;;20.60;49.50;;;;;;5059095;28;20127;-41
2021/10/28 06:04:09;;;;;;;1.20;0.40;;;20.60;49.60;;;;;;5060595;28;20037;-43
2021/10/28 06:06:36;;;;;;;1.45;0.60;;;20.60;49.50;;;;;;5062988;28;20051;-44
2021/10/28 06:09:03;;;;;;;1.13;0.20;;;20.60;49.50;;;;;;5051645;28;20049;-42
2021/10/28 06:11:30;;;;;;;1.48;0.73;;;20.60;49.50;;;;;;5057214;28;20110;-44
2021/10/28 06:13:58;;;;;;;0.38;0.30;;;20.50;49.40;;;;;;5058854;28;20253;-41
2021/10/28 06:16:27;;;;;;;0.85;0.50;;;20.60;49.50;;;;;;5059083;28;20430;-43
2021/10/28 06:18:54;;;;;;;1.13;0.75;;;20.50;49.40;;;;;;5063214;28;20044;-40
2021/10/28 06:21:25;;;;;;;1.77;0.63;;;20.60;49.50;;;;;;5065021;28;20041;-43
2021/10/28 06:23:52;;;;;;;0.80;0.47;;;20.50;49.40;;;;;;5060276;28;20136;-38
2021/10/28 06:26:19;;;;;;;0.82;0.25;;;20.50;50.10;;;;;;5058546;28;20450;-40
2021/10/28 06:28:46;;;;;;;1.73;0.63;;;20.50;49.50;;;;;;5058339;28;20109;-40
2021/10/28 06:31:14;;;;;;;0.60;0.60;;;20.50;49.40;;;;;;5055633;28;20043;-42
2021/10/28 06:33:48;;;;;;;2.75;0.30;;;20.50;49.50;;;;;;5063062;28;20049;-43
2021/10/28 06:36:18;;;;;;;0.50;0.20;;;20.50;49.50;;;;;;5063775;28;20060;-42
2021/10/28 06:38:46;;;;;;;0.68;0.68;;;20.50;49.50;;;;;;5058423;28;20044;-40
2021/10/28 06:41:13;;;;;;;1.48;0.40;;;20.50;49.50;;;;;;5057643;28;20049;-41
2021/10/28 06:43:41;;;;;;;0.30;0.30;;;20.50;49.50;;;;;;5055729;28;20824;-40
2021/10/28 06:46:08;;;;;;;0.50;0.45;;;20.50;49.40;;;;;;5044949;28;20037;-42
2021/10/28 06:48:36;;;;;;;0.88;0.40;;;20.50;49.50;;;;;;5063202;28;20037;-40
2021/10/28 06:51:04;;;;;;;0.40;0.30;;;20.50;49.40;;;;;;5050501;28;20396;-40
2021/10/28 06:53:34;;;;;;;0.65;0.57;;;20.50;49.40;;;;;;5055635;28;20048;-41
2021/10/28 06:56:08;;;;;;;1.30;0.20;;;20.50;49.40;;;;;;5057698;28;20040;-39
2021/10/28 07:04:05;;;;;;;0.28;0.28;;;20.40;49.40;;;;;;5032505;28;20501;-39
2021/10/28 07:06:37;;;;;;;0.30;0.20;;;20.40;49.40;;;;;;5062924;28;20130;-40
2021/10/28 07:09:15;;;;;;;0.30;0.30;;;20.40;49.40;;;;;;5061950;28;20055;-42
2021/10/28 07:11:42;;;;;;;0.55;0.55;;;20.40;49.40;;;;;;5057480;28;20048;-41
2021/10/28 07:14:11;;;;;;;0.57;0.30;;;20.40;49.40;;;;;;5057501;28;20151;-40
2021/10/28 07:16:45;;;;;;;0.40;0.40;;;20.40;49.40;;;;;;5057541;28;20726;-40
2021/10/28 07:19:42;;;;;;;0.57;0.57;;;20.40;49.40;;;;;;5059615;28;20107;-40
2021/10/28 07:22:32;;;;;;;0.80;0.47;;;20.40;49.40;;;;;;5032927;28;20033;-41
2021/10/28 07:25:17;;;;;;;0.45;0.45;;;20.40;49.40;;;;;;5031099;28;20053;-44
2021/10/28 07:28:11;;;;;;;0.60;0.60;;;20.40;49.40;;;;;;5062405;28;20520;-40
2021/10/28 07:33:35;;;;;;;0.38;0.30;;;20.40;49.40;;;;;;5001026;28;20484;-41
2021/10/28 07:36:21;;;;;;;0.70;0.68;;;20.40;49.40;;;;;;4988057;28;20517;-41
2021/10/28 07:39:22;;;;;;;1.25;0.88;;;20.40;49.40;;;;;;4995825;28;20053;-43
2021/10/28 08:15:12;;;;;;;0.85;0.55;;;20.40;49.30;;;;;;5061428;28;20037;-40
2021/10/28 08:20:42;;;;;;;2.15;0.40;;;20.40;49.20;;;;;;5057032;28;20404;-41
2021/10/28 08:23:13;;;;;;;4.25;0.38;;;20.40;49.10;;;;;;5056661;28;20040;-42
2021/10/28 08:28:42;;;;;;;0.68;0.40;;;20.50;49.10;;;;;;5059401;28;20045;-43
2021/10/28 08:31:10;;;;;;;1.35;0.65;;;20.50;49.10;;;;;;5063535;28;20129;-43
2021/10/28 08:33:37;;;;;;;1.05;0.40;;;20.40;49.10;;;;;;5066006;28;20102;-40
2021/10/28 08:36:09;;;;;;;2.42;0.82;;;20.50;49.10;;;;;;5053492;28;20506;-40
2021/10/28 08:38:36;;;;;;;1.23;1.15;;;20.50;49.00;;;;;;5059287;28;20040;-40
2021/10/28 08:41:05;;;;;;;1.20;0.20;;;20.50;49.00;;;;;;5060760;28;20053;-42
2021/10/28 08:43:36;;;;;;;0.50;0.50;;;20.50;49.00;;;;;;5051380;28;20041;-43
2021/10/28 08:46:06;;;;;;;0.93;0.55;;;20.50;48.90;;;;;;5063846;28;20139;-42
2021/10/28 08:48:36;;;;;;;0.70;0.50;;;20.60;48.90;;;;;;5049080;28;20091;-40
2021/10/28 08:51:09;;;;;;;1.08;0.45;;;20.60;48.90;;;;;;5064265;28;20382;-40
2021/10/28 08:56:39;;;;;;;0.47;0.47;;;20.60;48.80;;;;;;5050114;28;20059;-41
2021/10/28 08:59:25;;;;;;;0.82;0.60;;;20.60;48.80;;;;;;5060399;28;20039;-42
2021/10/28 09:24:17;;;;;;;1.92;0.65;;;20.70;48.60;;;;;;5063542;28;20757;-41
2021/10/28 09:26:55;;;;;;;0.70;0.50;;;20.70;48.60;;;;;;5059795;28;20382;-40
2021/10/28 09:29:35;;;;;;;0.90;0.40;;;20.70;49.10;;;;;;5059785;28;20037;-41
2021/10/28 09:32:15;;;;;;;0.50;0.40;;;20.70;48.50;;;;;;5059598;28;20067;-40
2021/10/28 09:35:04;;;;;;;0.28;0.28;;;20.80;48.50;;;;;;5059688;28;20123;-41
2021/10/28 09:46:15;;;;;;;2.65;0.32;;;20.70;48.30;;;;;;5033419;28;19994;-40
2021/10/28 09:51:43;;;;;;;0.85;0.70;;;20.80;48.40;;;;;;5002282;28;20046;-45
2021/10/28 09:54:19;;;;;;;2.47;0.35;;;20.80;48.30;;;;;;5001911;28;20068;-45
2021/10/28 09:59:35;;;;;;;1.95;0.32;;;20.80;48.20;;;;;;4980877;28;20116;-40
2021/10/28 10:04:49;;;;;;;1.10;0.40;;;20.90;48.70;;;;;;4996841;28;20037;-43
2021/10/28 10:07:19;;;;;;;0.90;0.50;;;20.90;48.10;;;;;;4998341;28;20041;-40
2021/10/28 10:09:47;;;;;;;0.60;0.47;;;21.00;48.10;;;;;;5002016;28;20653;-40
2021/10/28 10:12:14;;;;;;;10.02;0.85;;;21.00;48.00;;;;;;5001972;28;20054;-42
2021/10/28 10:14:43;;;;;;;1.08;0.60;;;21.00;48.00;;;;;;4996933;28;20046;-41
2021/10/28 10:17:11;;;;;;;1.15;0.40;;;21.00;47.90;;;;;;4997107;28;20124;-39
2021/10/28 10:19:42;;;;;;;1.95;0.50;;;21.00;47.90;;;;;;4996647;28;20145;-42
2021/10/28 10:22:28;;;;;;;1.15;0.40;;;21.10;47.90;;;;;;4998928;28;20650;-40
2021/10/28 10:25:04;;;;;;;1.55;0.52;;;21.10;47.90;;;;;;4970645;28;20057;-43
2021/10/28 11:25:35;;;;;;;2.47;0.20;;;21.70;47.00;;;;;;5052111;28;20041;-40
2021/10/28 11:30:39;;;;;;;0.40;0.38;;;21.80;46.80;;;;;;5058856;28;20128;-43
2021/10/28 12:15:48;;;;;;;1.13;0.22;;;22.50;46.10;;;;;;4993178;28;20641;-40
2021/10/28 12:46:15;;;;;;;2.17;0.63;;;22.90;45.60;;;;;;4948282;28;20457;-40
2021/10/28 12:49:17;;;;;;;0.80;0.40;;;22.90;45.40;;;;;;5023182;28;20592;-39
2021/10/28 13:03:28;;;;;;;5.25;0.30;;;23.10;45.30;;;;;;5001165;28;20053;-41
2021/10/28 13:06:22;;;;;;;0.25;0.20;;;23.10;45.30;;;;;;5000427;28;20050;-40
2021/10/28 13:50:08;;;;;;;2.00;0.30;;;23.50;44.70;;;;;;4865201;29;20089;-43
2021/10/28 13:52:51;;;;;;;5.47;0.40;;;23.50;44.70;;;;;;4870915;29;20325;-42
2021/10/28 13:55:37;;;;;;;0.52;0.28;;;23.60;44.70;;;;;;4860485;29;20575;-41
2021/10/28 14:20:43;;;;;;;0.63;0.63;;;23.80;44.20;;;;;;5004592;28;20042;-43
2021/10/28 14:23:23;;;;;;;1.95;0.20;;;23.90;44.20;;;;;;5005460;28;20041;-41
2021/10/28 15:29:26;;;;;;;0.40;0.40;;;24.30;43.20;;;;;;5057498;28;20147;-43
2021/10/28 15:37:31;;;;;;;2.60;0.20;;;24.30;43.20;;;;;;5047746;28;20048;-42
2021/10/28 15:40:06;;;;;;;1.40;0.20;;;24.30;43.20;;;;;;5031093;28;20067;-46
2021/10/28 15:54:03;;;;;;;5.40;0.32;;;24.20;42.90;;;;;;4989145;28;20050;-43
2021/10/28 15:59:43;;;;;;;1.50;0.28;;;24.20;42.80;;;;;;4991236;28;20175;-41
2021/10/28 16:24:09;;;;;;;1.55;0.20;;;24.00;42.90;;;;;;5050275;28;20579;-42
2021/10/28 16:26:37;;;;;;;0.52;0.40;;;23.90;42.90;;;;;;5055043;28;20124;-40
2021/10/28 16:29:07;;;;;;;0.50;0.30;;;23.90;42.90;;;;;;5057147;28;20131;-41
2021/10/28 16:31:36;;;;;;;1.35;0.25;;;23.90;43.00;;;;;;5056910;28;20052;-43
2021/10/28 16:34:04;;;;;;;2.05;0.30;;;23.90;43.60;;;;;;5060313;28;20048;-40
2021/10/28 16:36:31;;;;;;;1.95;0.20;;;23.90;43.60;;;;;;5053484;28;20041;-43
2021/10/28 16:39:00;;;;;;;0.60;0.20;;;23.90;43.00;;;;;;5059784;28;20043;-45
2021/10/28 16:41:28;;;;;;;0.43;0.20;;;23.80;43.00;;;;;;5048226;28;20045;-40
2021/10/28 16:43:55;;;;;;;0.88;0.30;;;23.80;43.00;;;;;;5049466;28;20051;-44
2021/10/28 16:46:22;;;;;;;0.93;0.20;;;23.80;43.10;;;;;;5057594;28;20114;-45
2021/10/28 16:48:50;;;;;;;0.30;0.10;;;23.70;43.00;;;;;;5062908;28;20041;-41
2021/10/28 16:51:17;;;;;;;3.10;0.20;;;23.70;43.10;;;;;;5065694;28;20044;-43
2021/10/28 16:53:45;;;;;;;1.58;0.30;;;23.70;43.20;;;;;;5060298;28;20048;-42
2021/10/28 16:56:14;;;;;;;2.30;0.28;;;23.70;43.20;;;;;;5060151;28;20032;-41
2021/10/28 16:58:41;;;;;;;0.63;0.38;;;23.70;43.30;;;;;;5060367;28;20099;-43
2021/10/28 17:01:09;;;;;;;1.35;0.30;;;23.60;43.20;;;;;;5063090;28;20037;-43
2021/10/28 17:03:36;;;;;;;0.30;0.20;;;23.60;43.30;;;;;;5065388;28;20562;-45
2021/10/28 17:06:05;;;;;;;0.52;0.20;;;23.50;43.30;;;;;;5063194;28;20043;-41
2021/10/28 17:08:32;;;;;;;2.15;1.13;;;23.50;43.40;;;;;;5055707;28;20040;-42
2021/10/28 17:11:01;;;;;;;1.23;0.22;;;23.50;43.40;;;;;;5053250;28;20044;-43
2021/10/28 17:13:28;;;;;;;0.93;0.20;;;23.40;43.40;;;;;;5060269;28;20037;-42
2021/10/28 17:15:55;;;;;;;2.30;0.63;;;23.50;43.50;;;;;;5064828;28;20167;-42
2021/10/28 17:18:22;;;;;;;0.40;0.20;;;23.40;43.50;;;;;;5058844;28;20041;-42
2021/10/28 17:20:49;;;;;;;0.30;0.30;;;23.40;43.50;;;;;;5060305;28;20129;-42
2021/10/28 17:23:19;;;;;;;1.30;0.30;;;23.40;43.60;;;;;;5059974;28;20040;-45
2021/10/28 17:25:54;;;;;;;0.47;0.38;;;23.40;43.60;;;;;;5059997;28;20045;-43
2021/10/28 17:28:22;;;;;;;0.45;0.45;;;23.40;43.70;;;;;;5060650;28;20133;-42
2021/10/28 17:30:49;;;;;;;0.60;0.30;;;23.30;43.70;;;;;;5063534;28;20037;-41
2021/10/28 17:33:16;;;;;;;3.13;1.08;;;23.30;43.80;;;;;;5064824;28;20584;-43
2021/10/28 17:35:43;;;;;;;1.65;0.47;;;23.30;43.80;;;;;;5059174;28;20408;-43
2021/10/28 17:38:10;;;;;;;0.55;0.50;;;23.20;43.80;;;;;;5059702;28;20055;-41
2021/10/28 17:40:39;;;;;;;1.05;0.28;;;23.20;43.90;;;;;;5059419;28;20052;-43
2021/10/28 17:43:10;;;;;;;0.73;0.20;;;23.20;43.90;;;;;;5062599;28;20041;-43
2021/10/28 17:45:38;;;;;;;0.93;0.60;;;23.20;43.90;;;;;;5064738;28;20037;-42
2021/10/28 17:48:05;;;;;;;0.52;0.32;;;23.20;43.90;;;;;;5051153;28;20032;-42
2021/10/28 17:50:34;;;;;;;1.73;0.88;;;23.20;44.00;;;;;;5055764;28;20041;-41
2021/10/28 17:53:01;;;;;;;0.40;0.32;;;23.10;44.00;;;;;;5059291;28;20090;-45
2021/10/28 17:55:29;;;;;;;0.73;0.30;;;23.10;44.00;;;;;;5058999;28;20037;-43
2021/10/28 17:57:57;;;;;;;3.20;0.40;;;23.10;44.10;;;;;;5063552;28;20039;-43
2021/10/28 18:00:25;;;;;;;0.50;0.25;;;23.10;44.10;;;;;;5065637;28;20040;-42
2021/10/28 18:02:53;;;;;;;0.50;0.20;;;23.10;44.20;;;;;;5059793;28;20040;-42
2021/10/28 18:05:20;;;;;;;2.38;0.43;;;23.10;44.20;;;;;;5058551;28;20044;-41
2021/10/28 18:07:48;;;;;;;3.58;0.52;;;23.00;44.20;;;;;;5058733;28;20091;-44
2021/10/28 18:10:16;;;;;;;1.80;0.30;;;23.00;44.20;;;;;;5060234;28;20079;-41
2021/10/28 18:12:45;;;;;;;0.88;0.20;;;23.00;44.30;;;;;;5060144;28;20041;-40
2021/10/28 18:15:13;;;;;;;0.77;0.52;;;23.00;44.30;;;;;;5063313;28;20063;-41
2021/10/28 18:17:40;;;;;;;0.63;0.30;;;23.00;44.30;;;;;;5058363;28;20040;-45
2021/10/28 18:20:09;;;;;;;0.73;0.50;;;22.90;44.30;;;;;;5058627;28;20459;-42
2021/10/28 18:22:38;;;;;;;0.50;0.25;;;22.90;44.40;;;;;;5058633;28;20115;-40
2021/10/28 18:25:06;;;;;;;0.77;0.22;;;22.90;45.00;;;;;;5061493;28;20087;-44
2021/10/28 18:27:36;;;;;;;2.35;0.43;;;22.90;44.50;;;;;;5063641;28;20045;-41
2021/10/28 18:30:05;;;;;;;0.93;0.20;;;22.90;44.50;;;;;;5061483;28;20041;-42
2021/10/28 18:32:33;;;;;;;0.40;0.40;;;22.90;44.50;;;;;;5057986;28;20032;-43
2021/10/28 18:35:00;;;;;;;0.63;0.20;;;22.90;44.50;;;;;;5057999;28;20036;-43
2021/10/28 18:37:27;;;;;;;1.02;0.50;;;22.80;44.50;;;;;;5058336;28;20047;-42
2021/10/28 18:39:55;;;;;;;1.38;0.50;;;22.80;44.60;;;;;;5063098;28;20124;-43
2021/10/28 18:42:22;;;;;;;1.98;0.65;;;22.80;44.60;;;;;;5059516;28;20139;-41
2021/10/28 18:44:50;;;;;;;0.45;0.20;;;22.80;44.60;;;;;;5046653;28;20047;-42
2021/10/28 18:47:17;;;;;;;1.55;0.30;;;22.80;44.70;;;;;;5053357;28;20047;-41
2021/10/28 18:49:45;;;;;;;2.67;0.63;;;22.80;44.70;;;;;;5057839;28;20519;-42
2021/10/28 18:52:12;;;;;;;0.80;0.57;;;22.80;44.70;;;;;;5060205;28;20122;-47
2021/10/28 18:54:39;;;;;;;1.13;0.25;;;22.70;44.70;;;;;;5063099;28;20052;-42
2021/10/28 18:57:06;;;;;;;1.00;0.70;;;22.70;44.70;;;;;;5050783;28;20045;-42
2021/10/28 18:59:33;;;;;;;3.50;0.40;;;22.70;44.80;;;;;;5055760;28;20072;-44
2021/10/28 19:02:00;;;;;;;0.45;0.45;;;22.70;44.80;;;;;;5058324;28;20036;-42
2021/10/28 19:04:28;;;;;;;0.50;0.30;;;22.70;44.80;;;;;;5057932;28;20150;-41
2021/10/28 19:06:56;;;;;;;2.20;0.43;;;22.70;44.90;;;;;;5030853;28;20468;-41
2021/10/28 19:09:23;;;;;;;0.95;0.47;;;22.70;44.90;;;;;;5048169;28;20063;-41
2021/10/28 19:11:51;;;;;;;1.70;0.73;;;22.70;45.00;;;;;;5073747;28;20068;-42
2021/10/28 19:14:18;;;;;;;3.17;0.50;;;22.70;45.00;;;;;;5057551;28;20139;-43
2021/10/28 19:16:45;;;;;;;1.77;0.73;;;22.60;45.00;;;;;;5056168;28;20036;-42
2021/10/28 19:19:13;;;;;;;0.85;0.52;;;22.60;45.00;;;;;;5060042;28;20600;-41
2021/10/28 19:21:41;;;;;;;0.73;0.40;;;22.60;45.00;;;;;;5062605;28;20087;-42
2021/10/28 19:24:09;;;;;;;0.55;0.38;;;22.60;45.10;;;;;;5050358;28;20045;-41
2021/10/28 19:26:38;;;;;;;4.20;0.50;;;22.60;45.10;;;;;;5055849;28;20068;-39
2021/10/28 19:29:07;;;;;;;0.73;0.73;;;22.60;45.10;;;;;;5057067;28;20044;-41
2021/10/28 19:31:39;;;;;;;4.25;0.75;;;22.60;45.20;;;;;;5057152;28;20098;-42
2021/10/28 19:34:06;;;;;;;0.40;0.40;;;22.50;45.10;;;;;;5060322;28;20049;-40
2021/10/28 19:36:37;;;;;;;1.00;0.50;;;22.50;45.10;;;;;;5062792;28;20139;-42
2021/10/28 19:39:24;;;;;;;1.50;0.70;;;22.50;45.20;;;;;;5049973;28;20048;-41
2021/10/28 19:47:22;;;;;;;0.68;0.50;;;22.50;45.30;;;;;;5057351;28;20386;-41
2021/10/28 19:49:49;;;;;;;0.93;0.75;;;22.50;45.40;;;;;;5057670;28;20074;-42
2021/10/28 19:52:17;;;;;;;2.53;0.73;;;22.40;45.30;;;;;;5046349;28;20041;-44
2021/10/28 19:54:47;;;;;;;2.42;0.32;;;22.40;45.30;;;;;;5062365;28;20045;-41
2021/10/28 19:57:18;;;;;;;1.65;0.30;;;22.40;45.40;;;;;;5060741;28;20101;-43
2021/10/28 19:59:48;;;;;;;0.63;0.57;;;22.40;45.40;;;;;;5057277;28;20770;-41
2021/10/28 20:02:21;;;;;;;1.20;0.47;;;22.40;45.40;;;;;;5057230;28;20033;-40
2021/10/28 20:07:40;;;;;;;1.15;0.38;;;22.40;45.50;;;;;;5044085;28;20041;-40
2021/10/28 20:13:16;;;;;;;0.68;0.40;;;22.40;45.60;;;;;;5019252;28;20506;-40
2021/10/28 20:21:24;;;;;;;0.73;0.60;;;22.30;45.60;;;;;;4946742;29;20048;-42
2021/10/28 20:23:51;;;;;;;2.05;1.02;;;22.30;45.60;;;;;;4946755;28;20130;-42
2021/10/28 20:26:19;;;;;;;2.90;0.50;;;22.30;45.70;;;;;;4948873;29;20054;-41
2021/10/28 20:28:48;;;;;;;1.55;0.60;;;22.30;45.70;;;;;;4948507;29;20140;-43
2021/10/28 20:31:18;;;;;;;0.68;0.57;;;22.30;45.70;;;;;;4948829;29;20045;-40
2021/10/28 20:33:48;;;;;;;0.88;0.60;;;22.30;45.70;;;;;;4948773;29;20520;-44
2021/10/28 20:39:02;;;;;;;1.83;0.40;;;22.30;45.70;;;;;;4950204;29;20587;-40
2021/10/28 20:41:30;;;;;;;0.65;0.65;;;22.20;45.70;;;;;;4948281;29;20058;-40
2021/10/28 20:43:59;;;;;;;0.82;0.38;;;22.20;45.70;;;;;;4948155;29;20043;-40
2021/10/28 20:46:28;;;;;;;1.73;0.60;;;22.30;45.80;;;;;;4948824;29;20127;-42
2021/10/28 20:48:56;;;;;;;2.88;1.05;;;22.20;45.80;;;;;;4933701;29;20047;-40
2021/10/28 20:51:23;;;;;;;0.82;0.40;;;22.20;45.80;;;;;;5003257;28;20050;-41
2021/10/28 20:53:51;;;;;;;1.17;0.63;;;22.20;45.80;;;;;;4993014;28;20173;-44
2021/10/28 20:56:21;;;;;;;1.50;0.85;;;22.20;45.80;;;;;;5042474;28;20215;-43
2021/10/28 20:58:48;;;;;;;1.08;0.52;;;22.30;45.90;;;;;;5060136;28;20045;-41
2021/10/28 21:01:16;;;;;;;2.15;0.85;;;22.20;45.90;;;;;;5062466;28;20029;-42
2021/10/28 21:03:44;;;;;;;2.53;0.93;;;22.20;45.90;;;;;;5065319;28;20133;-42